Time;durP1;ratioP1;P1;durP2;ratioP2;P2;SDS_P1;SDS_P2;PMS_P1;PMS_P2;Temp;Humidity;BMP_temperature;BMP_pressure;BME280_temperature;BME280_humidity;BME280_pressure;Samples;Min_cycle;Max_cycle;Signal;HPM_P1;HPM_P2
2020/12/31 00:02:04;;;;;;;9.13;5.55;;;4.50;99.90;;;;;;5089822;28;20042;-59
2020/12/31 00:04:30;;;;;;;9.68;5.55;;;4.50;99.90;;;;;;5086397;28;20027;-59
2020/12/31 00:06:55;;;;;;;9.02;5.63;;;4.50;99.90;;;;;;5083912;28;20508;-59
2020/12/31 00:09:23;;;;;;;11.45;6.60;;;4.50;99.90;;;;;;5086509;28;20024;-59
2020/12/31 00:11:49;;;;;;;10.30;6.25;;;4.60;99.90;;;;;;5086613;28;20076;-58
2020/12/31 00:14:14;;;;;;;12.25;6.40;;;4.40;99.90;;;;;;5086309;28;20099;-59
2020/12/31 00:16:40;;;;;;;9.13;6.25;;;4.50;99.90;;;;;;5086551;28;20135;-59
2020/12/31 00:19:06;;;;;;;8.23;6.07;;;4.50;99.90;;;;;;5087453;28;20047;-59
2020/12/31 00:21:31;;;;;;;8.63;5.75;;;4.50;99.90;;;;;;5085394;28;20027;-59
2020/12/31 00:23:57;;;;;;;5.95;5.40;;;4.60;99.90;;;;;;5087710;28;20028;-58
2020/12/31 00:26:22;;;;;;;6.63;5.30;;;4.60;99.90;;;;;;5084912;28;20073;-59
2020/12/31 00:28:48;;;;;;;6.10;4.88;;;4.50;99.90;;;;;;5087678;28;20085;-59
2020/12/31 00:31:14;;;;;;;9.70;7.43;;;4.60;99.90;;;;;;5084117;28;20391;-59
2020/12/31 00:33:40;;;;;;;8.23;5.57;;;4.60;99.90;;;;;;5088644;28;20040;-59
2020/12/31 00:36:06;;;;;;;8.63;5.97;;;4.50;99.90;;;;;;5083911;28;20051;-60
2020/12/31 00:38:32;;;;;;;8.38;5.50;;;4.70;99.90;;;;;;5088291;28;20516;-60
2020/12/31 00:40:59;;;;;;;5.80;4.70;;;4.60;99.90;;;;;;5087848;28;20404;-59
2020/12/31 00:43:25;;;;;;;5.13;4.07;;;4.60;99.90;;;;;;5089385;28;20056;-60
2020/12/31 00:45:51;;;;;;;4.57;3.75;;;4.60;99.90;;;;;;5086145;28;20055;-60
2020/12/31 00:48:17;;;;;;;4.55;3.50;;;4.50;99.90;;;;;;5092415;28;20028;-60
2020/12/31 00:50:42;;;;;;;6.07;3.67;;;4.60;99.90;;;;;;5084827;28;20112;-59
2020/12/31 00:53:08;;;;;;;3.13;2.70;;;4.70;99.90;;;;;;5093732;28;20028;-59
2020/12/31 00:55:34;;;;;;;3.60;2.65;;;4.70;99.90;;;;;;5083670;28;20071;-60
2020/12/31 00:58:00;;;;;;;2.60;2.10;;;4.70;99.90;;;;;;5093381;28;20032;-59
2020/12/31 01:00:26;;;;;;;7.13;2.60;;;4.90;99.90;;;;;;5090260;28;20027;-59
2020/12/31 01:02:51;;;;;;;3.30;2.35;;;5.00;99.90;;;;;;5093904;28;20480;-60
2020/12/31 01:05:17;;;;;;;2.38;2.17;;;5.00;99.90;;;;;;5085868;28;20036;-59
2020/12/31 01:07:43;;;;;;;3.15;2.55;;;5.00;99.90;;;;;;5090437;28;20020;-60
2020/12/31 01:10:09;;;;;;;4.40;2.47;;;5.10;99.90;;;;;;5088931;28;20438;-60
2020/12/31 01:12:35;;;;;;;4.25;2.85;;;4.90;99.90;;;;;;5093027;28;20008;-59
2020/12/31 01:15:02;;;;;;;4.82;3.20;;;4.90;99.90;;;;;;5087650;28;20107;-59
2020/12/31 01:17:28;;;;;;;5.75;3.47;;;5.00;99.90;;;;;;5087368;28;20040;-60
2020/12/31 01:19:54;;;;;;;5.20;3.47;;;5.00;99.90;;;;;;5086638;28;20024;-60
2020/12/31 01:22:20;;;;;;;6.60;3.63;;;5.10;99.90;;;;;;5093051;28;20027;-60
2020/12/31 01:24:46;;;;;;;5.63;3.90;;;5.00;99.90;;;;;;5086343;28;20035;-61
2020/12/31 01:27:15;;;;;;;8.40;4.38;;;5.00;99.90;;;;;;5092795;28;20016;-60
2020/12/31 01:29:41;;;;;;;7.57;4.57;;;5.00;99.90;;;;;;5085822;28;20178;-60
2020/12/31 01:32:06;;;;;;;5.72;4.45;;;5.10;99.90;;;;;;5092904;28;20032;-60
2020/12/31 01:34:34;;;;;;;7.97;4.55;;;5.00;99.90;;;;;;5087735;28;20540;-60
2020/12/31 01:37:00;;;;;;;7.35;4.15;;;4.90;99.90;;;;;;5088666;28;20532;-59
2020/12/31 01:39:26;;;;;;;9.02;4.65;;;4.90;99.90;;;;;;5088098;28;20139;-60
2020/12/31 01:41:52;;;;;;;4.82;4.13;;;5.10;99.90;;;;;;5085480;28;20087;-60
2020/12/31 01:44:18;;;;;;;4.63;3.17;;;5.00;99.90;;;;;;5089110;28;20391;-60
2020/12/31 01:46:46;;;;;;;4.43;3.05;;;4.90;99.90;;;;;;5086667;28;20020;-60
2020/12/31 01:49:16;;;;;;;3.22;2.50;;;4.90;99.90;;;;;;5089882;28;20507;-60
2020/12/31 01:51:44;;;;;;;3.20;2.90;;;4.90;99.90;;;;;;5092407;28;20028;-59
2020/12/31 01:54:11;;;;;;;4.97;2.75;;;4.80;99.90;;;;;;5081516;28;20032;-60
2020/12/31 01:56:37;;;;;;;4.68;2.30;;;5.00;99.90;;;;;;5084983;28;20020;-59
2020/12/31 01:59:03;;;;;;;6.13;2.40;;;4.90;99.90;;;;;;5090172;28;20482;-60
2020/12/31 02:01:29;;;;;;;3.63;2.60;;;5.00;99.90;;;;;;5086648;28;20042;-60
2020/12/31 02:03:57;;;;;;;3.65;2.42;;;5.10;99.90;;;;;;5090272;28;20781;-59
2020/12/31 02:06:28;;;;;;;5.78;2.65;;;5.00;99.90;;;;;;5089949;28;20134;-60
2020/12/31 02:08:54;;;;;;;5.47;2.42;;;5.10;99.90;;;;;;5090054;28;20079;-61
2020/12/31 02:11:23;;;;;;;3.17;2.65;;;5.10;99.90;;;;;;5083037;28;20095;-60
2020/12/31 02:13:49;;;;;;;2.65;2.45;;;5.10;99.90;;;;;;5090444;28;20024;-60
2020/12/31 02:16:16;;;;;;;4.15;2.97;;;5.10;99.90;;;;;;5089929;28;20560;-60
2020/12/31 02:18:54;;;;;;;4.53;2.60;;;5.10;99.90;;;;;;5091050;28;20039;-60
2020/12/31 02:21:30;;;;;;;4.13;2.55;;;5.10;99.90;;;;;;5087899;28;20085;-60
2020/12/31 02:23:56;;;;;;;4.90;2.60;;;5.10;99.90;;;;;;5089920;28;20032;-60
2020/12/31 02:26:27;;;;;;;6.80;2.75;;;5.20;99.90;;;;;;5086023;28;20027;-60
2020/12/31 02:28:54;;;;;;;4.20;2.60;;;5.20;99.90;;;;;;5090030;28;20016;-60
2020/12/31 02:31:20;;;;;;;3.47;2.80;;;5.30;99.90;;;;;;5088249;28;20024;-59
2020/12/31 02:33:47;;;;;;;2.95;2.40;;;5.00;99.90;;;;;;5088846;28;20389;-59
2020/12/31 02:36:14;;;;;;;4.18;2.40;;;5.20;99.90;;;;;;5087616;28;20414;-59
2020/12/31 02:38:41;;;;;;;6.22;3.17;;;5.20;99.90;;;;;;5090497;28;20036;-59
2020/12/31 02:41:07;;;;;;;2.97;2.70;;;5.20;99.90;;;;;;5082193;28;20512;-58
2020/12/31 02:43:34;;;;;;;4.03;2.30;;;5.30;99.90;;;;;;5091361;28;20485;-59
2020/12/31 02:45:59;;;;;;;4.25;2.55;;;5.20;99.90;;;;;;5084999;28;20503;-59
2020/12/31 02:48:25;;;;;;;4.68;2.35;;;5.20;99.90;;;;;;5091433;28;20012;-59
2020/12/31 02:50:51;;;;;;;3.42;2.28;;;5.20;99.90;;;;;;5084608;28;20031;-59
2020/12/31 02:53:16;;;;;;;6.55;2.25;;;5.20;99.90;;;;;;5091480;28;20035;-59
2020/12/31 02:55:42;;;;;;;4.85;2.30;;;5.20;99.90;;;;;;5084567;28;20561;-58
2020/12/31 02:58:08;;;;;;;3.90;2.80;;;5.20;99.90;;;;;;5091119;28;20054;-59
2020/12/31 03:00:34;;;;;;;5.97;2.83;;;5.30;99.90;;;;;;5084459;28;20024;-59
2020/12/31 03:03:00;;;;;;;3.45;2.80;;;5.30;99.90;;;;;;5091210;28;20073;-59
2020/12/31 03:05:26;;;;;;;3.53;2.60;;;5.20;99.90;;;;;;5084416;28;20552;-59
2020/12/31 03:07:51;;;;;;;5.68;2.53;;;5.20;99.90;;;;;;5090679;28;20125;-59
2020/12/31 03:10:17;;;;;;;6.18;3.00;;;5.30;99.90;;;;;;5085285;28;20127;-59
2020/12/31 03:12:42;;;;;;;3.30;2.50;;;5.30;99.90;;;;;;5072705;28;20035;-59
2020/12/31 03:15:10;;;;;;;5.63;2.60;;;5.20;99.90;;;;;;5084075;28;20028;-59
2020/12/31 03:17:37;;;;;;;3.05;2.75;;;5.20;99.90;;;;;;5089633;28;20111;-59
2020/12/31 03:20:04;;;;;;;5.95;2.83;;;5.10;99.90;;;;;;5085257;28;20050;-59
2020/12/31 03:22:29;;;;;;;8.23;3.47;;;5.10;99.90;;;;;;5090816;28;20070;-59
2020/12/31 03:24:55;;;;;;;6.78;2.85;;;5.20;99.90;;;;;;5087660;28;20047;-59
2020/12/31 03:27:21;;;;;;;4.35;2.75;;;5.20;99.90;;;;;;5088777;28;20062;-59
2020/12/31 03:29:46;;;;;;;4.97;3.30;;;5.30;99.90;;;;;;5086601;28;20645;-59
2020/12/31 03:32:12;;;;;;;7.28;2.67;;;5.30;99.90;;;;;;5090751;28;20529;-59
2020/12/31 03:34:38;;;;;;;3.95;3.10;;;5.30;99.90;;;;;;5085456;28;20050;-59
2020/12/31 03:37:03;;;;;;;5.32;3.20;;;5.30;99.90;;;;;;5086717;28;20049;-58
2020/12/31 03:39:29;;;;;;;7.35;3.42;;;5.20;99.90;;;;;;5085452;28;20036;-59
2020/12/31 03:41:55;;;;;;;3.22;2.60;;;5.20;99.90;;;;;;5084932;28;20020;-59
2020/12/31 03:44:20;;;;;;;7.57;2.75;;;5.30;99.90;;;;;;5086729;28;20024;-59
2020/12/31 03:46:46;;;;;;;5.13;2.83;;;5.30;99.90;;;;;;5087458;28;20028;-59
2020/12/31 03:49:11;;;;;;;9.18;3.20;;;5.40;99.90;;;;;;5087908;28;20021;-58
2020/12/31 03:51:37;;;;;;;6.88;2.90;;;5.40;99.90;;;;;;5085883;28;20032;-59
2020/12/31 03:54:03;;;;;;;8.80;3.00;;;5.40;99.90;;;;;;5088144;28;20025;-59
2020/12/31 03:56:29;;;;;;;9.60;2.95;;;5.30;99.90;;;;;;5083533;28;20158;-59
2020/12/31 03:58:54;;;;;;;13.55;2.55;;;5.30;99.90;;;;;;5088096;28;20049;-59
2020/12/31 04:01:20;;;;;;;6.93;2.65;;;5.40;99.90;;;;;;5088866;28;20020;-59
2020/12/31 04:03:45;;;;;;;3.13;2.63;;;5.30;99.90;;;;;;5088897;28;20052;-59
2020/12/31 04:06:13;;;;;;;6.20;2.83;;;5.40;99.90;;;;;;5080598;28;20024;-59
2020/12/31 04:08:38;;;;;;;5.05;2.72;;;5.40;99.90;;;;;;5071355;28;20376;-58
2020/12/31 04:11:04;;;;;;;8.13;2.80;;;5.30;99.90;;;;;;5079695;28;20032;-59
2020/12/31 04:13:30;;;;;;;5.40;2.47;;;5.30;99.90;;;;;;5089770;28;20077;-59
2020/12/31 04:15:55;;;;;;;2.67;2.33;;;5.20;99.90;;;;;;5085898;28;20048;-59
2020/12/31 04:18:21;;;;;;;6.43;2.63;;;5.40;99.90;;;;;;5089962;28;20040;-59
2020/12/31 04:20:46;;;;;;;4.18;2.55;;;5.30;99.90;;;;;;5085614;28;20426;-59
2020/12/31 04:23:12;;;;;;;5.07;2.97;;;5.30;99.90;;;;;;5087882;28;20020;-59
2020/12/31 04:25:38;;;;;;;4.57;2.30;;;5.40;99.90;;;;;;5085556;28;20036;-59
2020/12/31 04:28:03;;;;;;;5.72;2.45;;;5.20;99.90;;;;;;5086577;28;20024;-59
2020/12/31 04:30:29;;;;;;;4.65;2.53;;;5.20;99.90;;;;;;5084446;28;20020;-59
2020/12/31 04:32:54;;;;;;;3.97;2.25;;;5.10;99.90;;;;;;5089635;28;20416;-59
2020/12/31 04:35:20;;;;;;;2.97;2.17;;;5.20;99.90;;;;;;5083212;28;20032;-59
2020/12/31 04:37:46;;;;;;;4.53;2.70;;;5.20;99.90;;;;;;5084429;28;20067;-59
2020/12/31 04:40:11;;;;;;;4.63;2.70;;;5.10;99.90;;;;;;5082799;28;20068;-59
2020/12/31 04:42:37;;;;;;;3.05;2.75;;;5.10;99.90;;;;;;5089520;28;20024;-59
2020/12/31 04:45:04;;;;;;;7.40;2.35;;;5.10;99.90;;;;;;5082785;28;20086;-59
2020/12/31 04:47:51;;;;;;;3.58;2.22;;;5.20;99.90;;;;;;5087800;28;20016;-59
2020/12/31 04:50:21;;;;;;;3.33;2.55;;;5.30;99.90;;;;;;5049961;28;20036;-59
2020/12/31 04:52:48;;;;;;;5.15;2.88;;;5.00;99.90;;;;;;5087649;28;20024;-60
2020/12/31 04:55:14;;;;;;;5.18;2.53;;;5.20;99.90;;;;;;5065170;28;20381;-59
2020/12/31 04:57:39;;;;;;;3.40;2.22;;;5.10;99.90;;;;;;5089385;28;20047;-59
2020/12/31 05:00:05;;;;;;;4.85;2.70;;;5.20;99.90;;;;;;5082963;28;20031;-59
2020/12/31 05:02:31;;;;;;;3.60;2.38;;;5.30;99.90;;;;;;5089172;28;20412;-59
2020/12/31 05:05:03;;;;;;;3.70;2.90;;;5.10;99.90;;;;;;5082972;28;20020;-59
2020/12/31 05:07:28;;;;;;;4.60;2.60;;;5.00;99.90;;;;;;5089095;28;20066;-60
2020/12/31 05:10:10;;;;;;;4.05;2.35;;;5.10;99.90;;;;;;5083658;28;20463;-59
2020/12/31 05:12:36;;;;;;;3.30;2.38;;;5.20;99.90;;;;;;5089134;28;20025;-59
2020/12/31 05:15:02;;;;;;;3.10;2.50;;;5.00;99.90;;;;;;5082626;28;20584;-59
2020/12/31 05:17:29;;;;;;;6.38;2.22;;;5.30;99.90;;;;;;5087407;28;20044;-59
2020/12/31 05:19:55;;;;;;;4.10;2.40;;;5.10;99.90;;;;;;5080826;28;20063;-60
2020/12/31 05:22:21;;;;;;;4.60;2.90;;;5.10;99.90;;;;;;5082096;28;20488;-59
2020/12/31 05:24:51;;;;;;;3.72;2.40;;;5.20;99.90;;;;;;5077194;28;20028;-59
2020/12/31 05:27:21;;;;;;;5.40;2.70;;;5.20;99.90;;;;;;5089068;28;20031;-59
2020/12/31 05:29:53;;;;;;;3.08;2.55;;;5.20;99.90;;;;;;5082824;28;20024;-59
2020/12/31 05:32:23;;;;;;;2.58;2.05;;;5.20;99.90;;;;;;5091382;28;20066;-59
2020/12/31 05:34:51;;;;;;;4.85;2.60;;;5.30;99.90;;;;;;5089692;28;20020;-59
2020/12/31 05:37:17;;;;;;;3.20;2.45;;;5.30;99.90;;;;;;5085674;28;20020;-59
2020/12/31 05:39:53;;;;;;;4.65;2.33;;;5.10;99.90;;;;;;5090480;28;20043;-59
2020/12/31 05:42:20;;;;;;;4.05;2.28;;;5.20;99.90;;;;;;5085141;28;20027;-59
2020/12/31 05:45:02;;;;;;;2.92;2.00;;;5.20;99.90;;;;;;5086151;28;20029;-59
2020/12/31 05:47:27;;;;;;;3.20;2.05;;;5.10;99.90;;;;;;5086446;28;20020;-59
2020/12/31 05:49:53;;;;;;;5.32;2.22;;;5.10;99.90;;;;;;5086014;28;20082;-59
2020/12/31 05:52:36;;;;;;;2.40;2.20;;;5.00;99.90;;;;;;5090744;28;20024;-59
2020/12/31 05:55:06;;;;;;;3.60;2.67;;;5.20;99.90;;;;;;5082275;28;20067;-59
2020/12/31 05:57:46;;;;;;;2.85;2.10;;;5.10;99.90;;;;;;5086630;28;20058;-60
2020/12/31 06:00:23;;;;;;;6.78;2.83;;;5.00;99.90;;;;;;5085996;28;20392;-59
2020/12/31 06:02:51;;;;;;;2.58;1.92;;;5.00;99.90;;;;;;5092087;28;20027;-59
2020/12/31 06:05:18;;;;;;;3.10;2.17;;;5.00;99.90;;;;;;5085566;28;20016;-60
2020/12/31 06:07:58;;;;;;;2.47;2.03;;;4.90;99.90;;;;;;5092111;28;20107;-60
2020/12/31 06:10:26;;;;;;;2.80;2.00;;;5.00;99.90;;;;;;5083311;28;20488;-59
2020/12/31 06:12:51;;;;;;;2.85;1.83;;;5.00;99.90;;;;;;5092134;28;20027;-59
2020/12/31 06:15:19;;;;;;;3.78;2.35;;;5.10;99.90;;;;;;5084211;28;20036;-59
2020/12/31 06:17:47;;;;;;;3.25;2.50;;;5.20;99.90;;;;;;5090301;28;20028;-59
2020/12/31 06:20:15;;;;;;;5.93;2.10;;;5.00;99.90;;;;;;5084820;28;20084;-60
2020/12/31 06:23:01;;;;;;;4.55;2.03;;;5.20;99.90;;;;;;5091387;28;20034;-59
2020/12/31 06:25:57;;;;;;;2.35;1.90;;;5.20;99.90;;;;;;5088431;28;20071;-60
2020/12/31 06:28:23;;;;;;;4.30;2.53;;;5.20;99.90;;;;;;5090656;28;20040;-59
2020/12/31 06:30:58;;;;;;;5.95;2.30;;;5.10;99.90;;;;;;5084902;28;20020;-59
2020/12/31 06:33:38;;;;;;;5.60;2.50;;;5.00;99.90;;;;;;5091729;28;20035;-60
2020/12/31 06:36:04;;;;;;;3.88;2.45;;;5.10;99.90;;;;;;5085135;28;20049;-59
2020/12/31 06:38:38;;;;;;;6.07;2.45;;;4.90;99.90;;;;;;5091306;28;20044;-59
2020/12/31 06:41:25;;;;;;;3.67;2.35;;;5.00;99.90;;;;;;5082320;28;20035;-59
2020/12/31 06:44:06;;;;;;;5.25;2.42;;;4.90;99.90;;;;;;5083452;28;20028;-60
2020/12/31 06:46:42;;;;;;;4.75;2.47;;;4.90;99.90;;;;;;5089816;28;20537;-60
2020/12/31 06:49:10;;;;;;;2.83;1.98;;;5.00;99.90;;;;;;5088979;28;20111;-60
2020/12/31 06:51:36;;;;;;;3.50;1.80;;;5.10;99.90;;;;;;5089626;28;20051;-60
2020/12/31 06:54:02;;;;;;;3.05;1.90;;;5.10;99.90;;;;;;5087915;28;20036;-60
2020/12/31 06:56:41;;;;;;;4.70;1.92;;;6.10;99.90;;;;;;5083468;28;20020;-63
2020/12/31 06:59:30;;;;;;;2.15;1.92;;;5.70;99.90;;;;;;5089105;28;20548;-59
2020/12/31 07:01:58;;;;;;;3.85;2.25;;;5.60;99.90;;;;;;5087848;28;20020;-59
2020/12/31 07:04:34;;;;;;;5.75;3.35;;;5.40;99.90;;;;;;5086579;28;20039;-60
2020/12/31 07:07:18;;;;;;;9.05;6.00;;;5.30;99.90;;;;;;5068413;28;20097;-59
2020/12/31 07:09:59;;;;;;;12.98;9.27;;;5.30;99.90;;;;;;5086421;28;20115;-58
2020/12/31 07:12:35;;;;;;;19.88;12.75;;;5.20;99.90;;;;;;5084963;28;20020;-59
2020/12/31 07:15:01;;;;;;;21.65;13.93;;;5.10;99.90;;;;;;5086083;28;20569;-60
2020/12/31 07:17:37;;;;;;;26.95;15.32;;;5.10;99.90;;;;;;5089419;28;20048;-64
2020/12/31 07:20:10;;;;;;;33.33;19.08;;;5.00;99.90;;;;;;5086743;28;20564;-61
2020/12/31 07:22:37;;;;;;;29.23;17.98;;;5.00;99.90;;;;;;5087850;28;20032;-62
2020/12/31 07:25:11;;;;;;;29.55;18.60;;;5.10;99.90;;;;;;5087638;28;20020;-59
2020/12/31 07:27:52;;;;;;;37.80;22.70;;;5.00;99.90;;;;;;5088178;28;20549;-59
2020/12/31 07:30:22;;;;;;;31.60;19.65;;;5.00;99.90;;;;;;5085997;28;20054;-59
2020/12/31 07:33:04;;;;;;;21.65;14.38;;;4.90;99.90;;;;;;5087833;28;20114;-59
2020/12/31 07:35:40;;;;;;;24.85;14.15;;;5.00;99.90;;;;;;5079299;28;20028;-60
2020/12/31 07:38:18;;;;;;;18.90;12.00;;;5.00;99.90;;;;;;5086222;28;20036;-63
2020/12/31 07:40:48;;;;;;;20.30;11.38;;;5.10;99.90;;;;;;5077592;28;20020;-63
2020/12/31 07:43:22;;;;;;;8.93;7.85;;;5.10;99.90;;;;;;5089799;28;20484;-63
2020/12/31 07:45:59;;;;;;;8.52;6.82;;;4.90;99.90;;;;;;5086380;28;20028;-70
2020/12/31 07:48:26;;;;;;;12.80;6.30;;;4.90;99.90;;;;;;5090303;28;20118;-63
2020/12/31 07:51:03;;;;;;;5.82;5.22;;;4.90;99.90;;;;;;5083680;28;20105;-63
2020/12/31 07:53:31;;;;;;;5.50;4.60;;;5.10;99.90;;;;;;5087593;28;20045;-63
2020/12/31 07:55:58;;;;;;;6.72;4.80;;;5.10;99.90;;;;;;5079185;28;20036;-63
2020/12/31 07:58:25;;;;;;;6.53;4.45;;;5.20;99.90;;;;;;5074422;28;20066;-63
2020/12/31 08:01:03;;;;;;;5.30;4.80;;;5.20;99.90;;;;;;5083151;28;20130;-63
2020/12/31 08:03:29;;;;;;;5.57;4.55;;;5.20;99.90;;;;;;5074158;28;20576;-63
2020/12/31 08:06:02;;;;;;;4.85;3.72;;;5.20;99.90;;;;;;5084700;28;20134;-64
2020/12/31 08:08:28;;;;;;;7.20;3.50;;;5.30;99.90;;;;;;5089748;28;20427;-65
2020/12/31 08:10:54;;;;;;;3.60;3.30;;;5.30;99.90;;;;;;5084019;28;20035;-64
2020/12/31 08:13:20;;;;;;;4.10;3.47;;;5.40;99.90;;;;;;5089814;28;20031;-64
2020/12/31 08:15:54;;;;;;;4.18;3.40;;;5.40;99.90;;;;;;5083291;28;20047;-65
2020/12/31 08:18:20;;;;;;;4.57;3.40;;;5.30;99.90;;;;;;5083827;28;20036;-65
2020/12/31 08:20:48;;;;;;;4.78;4.00;;;5.40;99.90;;;;;;5083031;28;20023;-64
2020/12/31 08:23:40;;;;;;;3.88;3.38;;;5.60;99.90;;;;;;5089589;28;20096;-64
2020/12/31 08:26:12;;;;;;;5.53;3.10;;;5.60;99.90;;;;;;5079078;28;20500;-64
2020/12/31 08:28:38;;;;;;;4.55;3.63;;;5.70;99.90;;;;;;5089157;28;20035;-64
2020/12/31 08:31:11;;;;;;;4.15;3.63;;;5.80;99.90;;;;;;5083092;28;20028;-64
2020/12/31 08:33:39;;;;;;;3.72;3.42;;;6.00;99.90;;;;;;5078041;28;20029;-64
2020/12/31 08:36:05;;;;;;;4.38;3.63;;;6.00;99.90;;;;;;5083139;28;20047;-64
2020/12/31 08:38:37;;;;;;;5.00;3.97;;;6.30;99.90;;;;;;5079002;28;20047;-65
2020/12/31 08:41:06;;;;;;;4.55;4.15;;;6.30;99.90;;;;;;5082801;28;20048;-64
2020/12/31 08:43:37;;;;;;;4.57;4.18;;;6.30;99.90;;;;;;5088100;28;20069;-64
2020/12/31 08:46:05;;;;;;;5.10;4.10;;;6.70;99.90;;;;;;5082998;28;20107;-64
2020/12/31 08:48:33;;;;;;;5.25;3.92;;;6.80;99.90;;;;;;5087657;28;20036;-64
2020/12/31 08:51:14;;;;;;;4.00;3.60;;;6.60;99.90;;;;;;5082900;28;20526;-65
2020/12/31 08:53:52;;;;;;;3.40;3.10;;;6.50;99.90;;;;;;5089343;28;20030;-65
2020/12/31 08:56:19;;;;;;;3.80;3.08;;;6.50;99.90;;;;;;5085214;28;20032;-64
2020/12/31 08:58:45;;;;;;;3.50;3.10;;;6.70;99.90;;;;;;5090056;28;20055;-62
2020/12/31 09:01:24;;;;;;;3.15;2.80;;;7.00;99.90;;;;;;5083000;28;20404;-63
2020/12/31 09:03:51;;;;;;;5.07;2.97;;;7.30;99.90;;;;;;5076162;28;20089;-62
2020/12/31 09:06:26;;;;;;;4.20;2.70;;;7.20;99.90;;;;;;5082584;28;20500;-62
2020/12/31 09:08:52;;;;;;;4.50;3.00;;;7.00;99.90;;;;;;5079348;28;20020;-66
2020/12/31 09:11:26;;;;;;;3.20;2.78;;;7.10;99.90;;;;;;5084526;28;20666;-62
2020/12/31 09:13:52;;;;;;;4.75;3.55;;;7.00;99.90;;;;;;5078336;28;20050;-62
2020/12/31 09:16:17;;;;;;;4.22;3.33;;;7.50;99.90;;;;;;5086471;28;20052;-62
2020/12/31 09:18:44;;;;;;;3.75;3.30;;;7.60;99.90;;;;;;5092593;28;20032;-62
2020/12/31 09:21:10;;;;;;;3.80;3.50;;;7.60;99.90;;;;;;5068355;28;20503;-65
2020/12/31 09:23:37;;;;;;;5.97;3.13;;;7.50;99.90;;;;;;5085875;28;20408;-62
2020/12/31 09:26:03;;;;;;;3.33;2.95;;;7.40;99.90;;;;;;5086300;28;20028;-62
2020/12/31 09:28:30;;;;;;;2.80;2.55;;;7.60;99.90;;;;;;5091089;28;20020;-67
2020/12/31 09:31:12;;;;;;;6.57;2.60;;;7.60;99.90;;;;;;5087178;28;20024;-62
2020/12/31 09:33:38;;;;;;;6.55;3.25;;;7.70;99.90;;;;;;5092587;28;20016;-62
2020/12/31 09:36:03;;;;;;;3.75;2.90;;;7.70;99.90;;;;;;5086428;28;20103;-67
2020/12/31 09:38:29;;;;;;;5.78;4.07;;;7.80;99.90;;;;;;5092528;28;20110;-64
2020/12/31 09:40:54;;;;;;;6.32;3.05;;;7.80;99.90;;;;;;5086295;28;20020;-62
2020/12/31 09:43:20;;;;;;;2.28;2.08;;;7.90;99.90;;;;;;5092360;28;20722;-62
2020/12/31 09:45:46;;;;;;;3.33;2.88;;;8.20;99.90;;;;;;5082501;28;20046;-63
2020/12/31 09:48:11;;;;;;;2.97;2.45;;;8.40;99.90;;;;;;5091471;28;20030;-62
2020/12/31 09:50:37;;;;;;;4.70;2.72;;;8.60;99.90;;;;;;5085854;28;20034;-62
2020/12/31 09:53:02;;;;;;;2.88;2.22;;;8.80;99.90;;;;;;5092491;28;20415;-62
2020/12/31 09:55:28;;;;;;;5.18;2.13;;;9.00;99.90;;;;;;5087451;28;20040;-62
2020/12/31 09:57:54;;;;;;;2.42;1.88;;;9.20;99.90;;;;;;5087636;28;20622;-62
2020/12/31 10:00:20;;;;;;;5.20;1.95;;;9.50;99.90;;;;;;5085765;28;20477;-62
2020/12/31 10:02:46;;;;;;;2.40;2.10;;;9.50;99.90;;;;;;5092298;28;20028;-62
2020/12/31 10:05:11;;;;;;;2.45;2.25;;;9.30;99.90;;;;;;5085580;28;20028;-63
2020/12/31 10:07:37;;;;;;;2.63;2.42;;;9.10;99.90;;;;;;5092235;28;20615;-63
2020/12/31 10:10:03;;;;;;;4.50;3.42;;;9.00;99.90;;;;;;5085753;28;20060;-62
2020/12/31 10:12:30;;;;;;;5.60;3.38;;;9.20;99.90;;;;;;5086402;28;20016;-62
2020/12/31 10:14:57;;;;;;;2.95;2.60;;;9.30;99.90;;;;;;5086836;28;20032;-62
2020/12/31 10:17:22;;;;;;;2.28;2.03;;;9.70;99.90;;;;;;5090480;28;20102;-62
2020/12/31 10:19:48;;;;;;;2.30;1.67;;;10.20;99.90;;;;;;5088996;28;20084;-64
2020/12/31 10:22:14;;;;;;;1.83;1.30;;;10.60;99.90;;;;;;5083775;28;20024;-62
2020/12/31 10:24:40;;;;;;;1.60;1.02;;;10.80;99.90;;;;;;5086838;28;20024;-62
2020/12/31 10:27:05;;;;;;;2.63;1.45;;;10.60;99.90;;;;;;5091931;28;20416;-63
2020/12/31 10:29:31;;;;;;;3.58;1.70;;;10.70;99.90;;;;;;5088630;28;20020;-63
2020/12/31 10:31:57;;;;;;;1.55;1.40;;;10.80;99.90;;;;;;5089521;28;20036;-62
2020/12/31 10:34:24;;;;;;;1.50;0.82;;;10.90;99.90;;;;;;5089845;28;20036;-63
2020/12/31 10:36:53;;;;;;;0.43;0.40;;;10.60;99.90;;;;;;5084080;28;20091;-63
2020/12/31 10:39:19;;;;;;;1.60;0.60;;;10.20;99.90;;;;;;5089287;28;20044;-63
2020/12/31 10:41:46;;;;;;;0.98;0.70;;;10.20;99.90;;;;;;5083115;28;20388;-62
2020/12/31 10:44:13;;;;;;;1.55;0.60;;;10.20;99.90;;;;;;5089736;28;20430;-62
2020/12/31 10:46:39;;;;;;;0.75;0.60;;;10.40;99.90;;;;;;5078161;28;20024;-63
2020/12/31 10:49:04;;;;;;;1.05;0.60;;;10.60;99.90;;;;;;5089910;28;20061;-62
2020/12/31 10:51:33;;;;;;;1.05;0.52;;;10.90;99.90;;;;;;5089474;28;20019;-62
2020/12/31 10:53:59;;;;;;;0.70;0.60;;;10.80;99.90;;;;;;5089760;28;20048;-64
2020/12/31 10:56:25;;;;;;;1.15;0.70;;;10.70;99.90;;;;;;5086665;28;20572;-63
2020/12/31 10:58:50;;;;;;;1.38;0.70;;;10.60;99.90;;;;;;5088876;28;20024;-63
2020/12/31 11:01:16;;;;;;;0.52;0.50;;;10.80;99.90;;;;;;5079958;28;20020;-62
2020/12/31 11:03:43;;;;;;;0.80;0.80;;;10.90;99.90;;;;;;5076318;28;20028;-62
2020/12/31 11:06:16;;;;;;;0.80;0.80;;;11.50;99.90;;;;;;5082956;28;20031;-65
2020/12/31 11:08:42;;;;;;;1.38;0.52;;;11.50;99.90;;;;;;5070972;28;20032;-62
2020/12/31 11:11:07;;;;;;;0.98;0.85;;;11.60;99.90;;;;;;5083025;28;20028;-63
2020/12/31 11:13:33;;;;;;;0.95;0.60;;;11.40;99.90;;;;;;5091153;28;20524;-62
2020/12/31 11:15:58;;;;;;;0.88;0.70;;;11.50;99.90;;;;;;5085506;28;20058;-63
2020/12/31 11:18:24;;;;;;;3.15;1.00;;;11.50;99.90;;;;;;5090239;28;20040;-63
2020/12/31 11:20:53;;;;;;;1.60;1.15;;;11.60;99.90;;;;;;5084046;28;20357;-62
2020/12/31 11:23:19;;;;;;;1.25;0.63;;;11.40;99.90;;;;;;5083071;28;20024;-62
2020/12/31 11:25:44;;;;;;;0.82;0.65;;;11.80;99.90;;;;;;5084959;28;20382;-62
2020/12/31 11:28:10;;;;;;;1.80;0.70;;;11.90;99.90;;;;;;5091579;28;20117;-63
2020/12/31 11:30:36;;;;;;;1.30;0.63;;;11.80;99.90;;;;;;5082234;28;20115;-63
2020/12/31 11:33:01;;;;;;;1.98;0.82;;;11.90;99.90;;;;;;5090001;28;20032;-62
2020/12/31 11:35:27;;;;;;;0.60;0.60;;;12.10;99.90;;;;;;5086796;28;20035;-62
2020/12/31 11:37:52;;;;;;;0.88;0.70;;;11.80;99.90;;;;;;5090272;28;20024;-62
2020/12/31 11:40:18;;;;;;;0.98;0.88;;;11.40;99.90;;;;;;5084199;28;20500;-62
2020/12/31 11:42:44;;;;;;;0.80;0.70;;;11.30;99.90;;;;;;5076883;28;20025;-62
2020/12/31 11:45:10;;;;;;;1.83;0.60;;;11.00;99.90;;;;;;5086466;28;20115;-61
2020/12/31 11:47:35;;;;;;;1.45;0.60;;;11.10;99.90;;;;;;5087875;28;20012;-61
2020/12/31 11:50:01;;;;;;;0.63;0.63;;;10.90;99.90;;;;;;5065647;28;20578;-61
2020/12/31 11:52:28;;;;;;;1.55;1.20;;;10.90;99.90;;;;;;5090124;28;20392;-61
2020/12/31 11:54:54;;;;;;;1.08;0.95;;;11.10;99.90;;;;;;5086898;28;20020;-61
2020/12/31 11:57:19;;;;;;;1.63;0.85;;;11.20;99.90;;;;;;5083989;28;20039;-60
2020/12/31 11:59:45;;;;;;;1.77;0.85;;;11.20;99.90;;;;;;5087860;28;20036;-61
2020/12/31 12:02:11;;;;;;;0.90;0.68;;;11.30;99.90;;;;;;5086796;28;20079;-60
2020/12/31 12:04:36;;;;;;;1.02;0.60;;;11.30;99.90;;;;;;5085826;28;20021;-61
2020/12/31 12:07:02;;;;;;;2.50;0.80;;;11.10;99.90;;;;;;5084610;28;20081;-60
2020/12/31 12:09:28;;;;;;;1.58;1.45;;;11.20;99.90;;;;;;5086660;28;20374;-61
2020/12/31 12:11:54;;;;;;;2.55;0.88;;;11.10;99.90;;;;;;5078840;28;20039;-61
2020/12/31 12:14:19;;;;;;;1.20;0.82;;;11.00;99.90;;;;;;5086725;28;20020;-62
2020/12/31 12:16:49;;;;;;;0.88;0.82;;;11.10;99.90;;;;;;5080769;28;20055;-62
2020/12/31 12:19:15;;;;;;;2.80;0.70;;;10.90;99.90;;;;;;5072958;28;20036;-62
2020/12/31 12:21:41;;;;;;;2.40;0.80;;;10.90;99.90;;;;;;5079579;28;20050;-62
2020/12/31 12:24:07;;;;;;;1.38;0.90;;;11.10;99.90;;;;;;5087748;28;20027;-62
2020/12/31 12:26:37;;;;;;;1.80;1.20;;;11.00;99.90;;;;;;5080147;28;20508;-62
2020/12/31 12:29:04;;;;;;;2.20;1.38;;;11.10;99.90;;;;;;5086491;28;20024;-62
2020/12/31 12:31:34;;;;;;;2.38;1.80;;;11.30;99.90;;;;;;5085177;28;20024;-61
2020/12/31 12:34:00;;;;;;;1.77;1.45;;;11.40;99.90;;;;;;5088395;28;20020;-62
2020/12/31 12:36:26;;;;;;;1.85;1.20;;;11.90;99.90;;;;;;5080486;28;20023;-61
2020/12/31 12:38:52;;;;;;;1.65;0.75;;;12.00;99.90;;;;;;5083455;28;20396;-62
2020/12/31 12:41:18;;;;;;;1.42;0.90;;;11.80;99.90;;;;;;5080223;28;20068;-61
2020/12/31 12:43:44;;;;;;;1.13;0.70;;;12.00;99.90;;;;;;5069552;28;20090;-61
2020/12/31 12:46:13;;;;;;;1.17;0.80;;;12.00;99.90;;;;;;5080938;28;20028;-62
2020/12/31 12:48:39;;;;;;;2.30;0.70;;;11.90;99.90;;;;;;5069624;28;20111;-62
2020/12/31 12:51:05;;;;;;;1.58;0.82;;;11.90;99.90;;;;;;5081873;28;20147;-62
2020/12/31 12:53:30;;;;;;;1.52;0.63;;;11.80;99.90;;;;;;5089424;28;20115;-61
2020/12/31 12:55:56;;;;;;;2.05;0.60;;;11.40;99.90;;;;;;5082825;28;20163;-61
2020/12/31 12:58:21;;;;;;;1.40;0.80;;;11.40;99.90;;;;;;5069266;28;20032;-71